Woodridge, Illinois
Current Conditions -  °F | °C
As of 1:15 AM on Thursday 18 Dec 2014 (Local Time) from KLOT Reporting Station
Overcast Overcast  
Wind Chill: 23°   Ceiling: 2000
Heat Index: 23°   Visibility: 10mi
Dew Point: 17°   Wind: 3mph
Humidity: 77%   Direction: 330°NNW
Pressure: 30.29"   Gusts: NA
Location:  41.75°N, 88.03°W
Report Text: KLOT 180715Z AUTO 33003KT 10SM OVC020 M05/M08 A3029 RMK AO2 T10501085
Loading
Personal Weather Stations






























Interactive Weather Map New forecast layout! Learn more

10-Day Weather Forecast

Advertisements
Track Severe Weather on mobile